Rockland, MA (02370)

8:33 PM EDT on October 01, 2014 (GMT -0400)
Rockland Fire HQ | Change Station
CLOSE
Current Station
Personal Weather Station
Location: Rockland, MA
Elevation: 49 m
Nearby Weather Stations
Active Advisory: Areal Flood Watch Active Notice: Public Information Statement

Elev 49 m 42.13 °N, 70.92 °W | Updated 46 seconds ago

Rain
Rain
14.4 °C
Feels Like 14.4 °C
N
9.7
Wind Variable Wind from East
Gusts 9.7 km/h

Today
High -- | Low -- °C
--% Chance of Precip.
Yesterday
High -- | Low -- °C
Precip. -- mm
6:40 AM 6:25 PM
First Quarter, 52% visible
Pressure 1018 hPa
Visibility 4.8 kilometers
Clouds Overcast 152 m
Dew Point 14 °C
Humidity 99%
Rainfall 22 mm
Snow Depth Not available.
UV 0 out of 12
Pollen .40 out of 12
PM2.5 Good
Flu Activity Not available.
METAR KGHG 020010Z AUTO 05010G18KT 3SM RA OVC005 16/15 A3008 RMK AO2

More Conditions Fewer Conditions

Pressure 1018 hPa
Visibility 4.8 kilometers
Clouds Overcast 152 m
Dew Point 14 °C
Humidity 99%
Rainfall 22 mm
Snow Depth Not available.
UV 0 out of 12
Pollen .40 out of 12
PM2.5 Good
Flu Activity Not available.
METAR KGHG 020010Z AUTO 05010G18KT 3SM RA OVC005 16/15 A3008 RMK AO2

More Conditions Fewer Conditions

10-Day Weather Forecast

Almanac

Astronomy

Oct. 01, 2014 Rise Set
Actual Time 6:40 AM EDT 6:25 PM EDT
Civil Twilight 6:12 AM EDT 6:53 PM EDT
Nautical Twilight 5:40 AM EDT 7:25 PM EDT
Astronomical Twilight 5:07 AM EDT 7:58 PM EDT
Moon 1:43 PM EDT (10/1) 11:49 PM EDT (10/1)
Length of Visible Light 12h 40m
Length of Day
11h 44m
Tomorrow will be 2m 48s shorter.
First Quarter, 52% of the Moon is Illuminated
Today
First Quarter
Oct 8
Full
Oct 15
Last Quarter
Oct 23
New
Oct 30
First Quarter

Today's Extremes

State Highs State Lows

Community

WunderPhotos

Upload Photos

1,758,101 photos uploaded!

WunderBlogs® & News

Nearby

Air Quality

  Air Quality AQ Index Pollutant
Yesterday Good
PM2.5
Yesterday Good
OZONE
Current Good
PM2.5
Wednesday Good
PM2.5
Wednesday Good
OZONE
Thursday Good
PM2.5
Thursday Good
OZONE

Snow Depth

Station Depth Elevation
No new snow has been reported.

Earthquake Activity

City Distance Mag. Time & Date
No recent earthquake activity has been reported nearby.
Minimum magnitude displayed is 2.5.

Coastal Water Temperatures

Place Temperature
Boston, MA 16.7 °C
Providence, RI 18.3 °C
Fall River, MA 19.4 °C
Conimicut Light, RI 18.9 °C

Nearby Weather Stations